Roosevelt, Oklahoma
Current Conditions -  °F | °C
As of 7:53 PM on Friday 24 Oct 2014 (Local Time) from KHBR Reporting Station
Clear Clear  
Wind Chill: 76°   Ceiling: Unl
Heat Index: 76°   Visibility: 10mi
Dew Point: 56°   Wind: 9mph
Humidity: 50%   Direction: 180°S
Pressure: 30.04"   Gusts: NA
Location:  34.85°N, 99.02°W
Report Text: KHBR 250053Z AUTO 18008KT 10SM CLR 24/13 A3004 RMK AO2 SLP161 T02440133
Loading
Personal Weather Stations






























Interactive Weather Map New forecast layout! Learn more

10-Day Weather Forecast

Advertisements
Track Severe Weather on mobile